sensor_id;sensor_type;location;lat;lon;timestamp;temperature;humidity
16643;DHT22;8435;52.184;5.406;2023-12-20T00:01:02;9.30;99.90
16643;DHT22;8435;52.184;5.406;2023-12-20T00:03:29;9.20;99.90
16643;DHT22;8435;52.184;5.406;2023-12-20T00:05:56;9.20;99.90
16643;DHT22;8435;52.184;5.406;2023-12-20T00:08:23;9.10;99.90
16643;DHT22;8435;52.184;5.406;2023-12-20T00:10:50;9.10;99.90
16643;DHT22;8435;52.184;5.406;2023-12-20T00:13:18;9.00;99.90
16643;DHT22;8435;52.184;5.406;2023-12-20T00:15:46;9.00;99.90
16643;DHT22;8435;52.184;5.406;2023-12-20T00:18:12;8.90;99.90
16643;DHT22;8435;52.184;5.406;2023-12-20T00:20:39;8.90;99.90
16643;DHT22;8435;52.184;5.406;2023-12-20T00:23:06;8.90;99.90
16643;DHT22;8435;52.184;5.406;2023-12-20T00:25:33;8.90;99.90
16643;DHT22;8435;52.184;5.406;2023-12-20T00:28:00;8.90;99.90
16643;DHT22;8435;52.184;5.406;2023-12-20T00:30:29;8.90;99.90
16643;DHT22;8435;52.184;5.406;2023-12-20T00:32:55;8.90;99.90
16643;DHT22;8435;52.184;5.406;2023-12-20T00:35:22;8.90;99.90
16643;DHT22;8435;52.184;5.406;2023-12-20T00:37:49;8.90;99.90
16643;DHT22;8435;52.184;5.406;2023-12-20T00:40:16;8.80;99.90
16643;DHT22;8435;52.184;5.406;2023-12-20T00:42:42;8.80;99.90
16643;DHT22;8435;52.184;5.406;2023-12-20T00:45:09;8.80;99.90
16643;DHT22;8435;52.184;5.406;2023-12-20T00:47:37;8.80;99.90
16643;DHT22;8435;52.184;5.406;2023-12-20T00:50:05;8.80;99.90
16643;DHT22;8435;52.184;5.406;2023-12-20T00:52:32;8.80;99.90
16643;DHT22;8435;52.184;5.406;2023-12-20T00:55:00;8.80;99.90
16643;DHT22;8435;52.184;5.406;2023-12-20T00:57:27;8.70;99.90
16643;DHT22;8435;52.184;5.406;2023-12-20T00:59:54;8.70;99.90
16643;DHT22;8435;52.184;5.406;2023-12-20T01:02:20;8.70;99.90
16643;DHT22;8435;52.184;5.406;2023-12-20T01:04:48;8.70;99.90
16643;DHT22;8435;52.184;5.406;2023-12-20T01:07:15;8.70;99.90
16643;DHT22;8435;52.184;5.406;2023-12-20T01:09:42;8.70;99.90
16643;DHT22;8435;52.184;5.406;2023-12-20T01:12:09;8.70;99.90
16643;DHT22;8435;52.184;5.406;2023-12-20T01:14:35;8.70;99.90
16643;DHT22;8435;52.184;5.406;2023-12-20T01:17:02;8.70;99.90
16643;DHT22;8435;52.184;5.406;2023-12-20T01:19:29;8.70;99.90
16643;DHT22;8435;52.184;5.406;2023-12-20T01:21:57;8.60;99.90
16643;DHT22;8435;52.184;5.406;2023-12-20T01:24:24;8.60;99.90
16643;DHT22;8435;52.184;5.406;2023-12-20T01:26:50;8.60;99.90
16643;DHT22;8435;52.184;5.406;2023-12-20T01:29:17;8.60;99.90
16643;DHT22;8435;52.184;5.406;2023-12-20T01:31:44;8.60;99.90
16643;DHT22;8435;52.184;5.406;2023-12-20T01:34:11;8.60;99.90
16643;DHT22;8435;52.184;5.406;2023-12-20T01:36:37;8.60;99.90
16643;DHT22;8435;52.184;5.406;2023-12-20T01:39:05;8.60;99.90
16643;DHT22;8435;52.184;5.406;2023-12-20T01:41:32;8.60;99.90
16643;DHT22;8435;52.184;5.406;2023-12-20T01:43:59;8.70;99.90
16643;DHT22;8435;52.184;5.406;2023-12-20T01:46:26;8.70;99.90
16643;DHT22;8435;52.184;5.406;2023-12-20T01:48:53;8.70;99.90
16643;DHT22;8435;52.184;5.406;2023-12-20T01:51:20;8.70;99.90
16643;DHT22;8435;52.184;5.406;2023-12-20T01:53:48;8.80;99.90
16643;DHT22;8435;52.184;5.406;2023-12-20T01:56:16;8.80;99.90
16643;DHT22;8435;52.184;5.406;2023-12-20T01:58:45;8.80;99.90
16643;DHT22;8435;52.184;5.406;2023-12-20T02:01:12;8.80;99.90
16643;DHT22;8435;52.184;5.406;2023-12-20T02:03:40;8.80;99.90
16643;DHT22;8435;52.184;5.406;2023-12-20T02:06:08;8.80;99.90
16643;DHT22;8435;52.184;5.406;2023-12-20T02:08:35;8.80;99.90
16643;DHT22;8435;52.184;5.406;2023-12-20T02:11:03;8.80;99.90
16643;DHT22;8435;52.184;5.406;2023-12-20T02:13:32;8.80;99.90
16643;DHT22;8435;52.184;5.406;2023-12-20T02:15:59;8.90;99.90
16643;DHT22;8435;52.184;5.406;2023-12-20T02:18:26;8.90;99.90
16643;DHT22;8435;52.184;5.406;2023-12-20T02:20:52;8.90;99.90
16643;DHT22;8435;52.184;5.406;2023-12-20T02:23:21;8.90;99.90
16643;DHT22;8435;52.184;5.406;2023-12-20T02:25:48;9.00;99.90
16643;DHT22;8435;52.184;5.406;2023-12-20T02:28:14;9.00;99.90
16643;DHT22;8435;52.184;5.406;2023-12-20T02:30:42;9.00;99.90
16643;DHT22;8435;52.184;5.406;2023-12-20T02:33:10;9.00;99.90
16643;DHT22;8435;52.184;5.406;2023-12-20T02:35:38;9.00;99.90
16643;DHT22;8435;52.184;5.406;2023-12-20T02:38:05;9.00;99.90
16643;DHT22;8435;52.184;5.406;2023-12-20T02:40:33;9.00;99.90
16643;DHT22;8435;52.184;5.406;2023-12-20T02:43:00;9.00;99.90
16643;DHT22;8435;52.184;5.406;2023-12-20T02:45:29;9.10;99.90
16643;DHT22;8435;52.184;5.406;2023-12-20T02:47:56;9.00;99.90
16643;DHT22;8435;52.184;5.406;2023-12-20T02:50:22;9.10;99.90
16643;DHT22;8435;52.184;5.406;2023-12-20T02:52:49;9.10;99.90
16643;DHT22;8435;52.184;5.406;2023-12-20T02:55:16;9.00;99.90
16643;DHT22;8435;52.184;5.406;2023-12-20T02:57:44;9.00;99.90
16643;DHT22;8435;52.184;5.406;2023-12-20T03:00:11;9.00;99.90
16643;DHT22;8435;52.184;5.406;2023-12-20T03:02:38;9.10;99.90
16643;DHT22;8435;52.184;5.406;2023-12-20T03:05:06;9.10;99.90
16643;DHT22;8435;52.184;5.406;2023-12-20T03:07:32;9.00;99.90
16643;DHT22;8435;52.184;5.406;2023-12-20T03:09:59;9.00;99.90
16643;DHT22;8435;52.184;5.406;2023-12-20T03:12:26;9.00;99.90
16643;DHT22;8435;52.184;5.406;2023-12-20T03:14:54;9.00;99.90
16643;DHT22;8435;52.184;5.406;2023-12-20T03:17:21;9.00;99.90
16643;DHT22;8435;52.184;5.406;2023-12-20T03:19:47;9.00;99.90
16643;DHT22;8435;52.184;5.406;2023-12-20T03:22:14;9.10;99.90
16643;DHT22;8435;52.184;5.406;2023-12-20T03:24:41;9.10;99.90
16643;DHT22;8435;52.184;5.406;2023-12-20T03:27:08;9.10;99.90
16643;DHT22;8435;52.184;5.406;2023-12-20T03:29:37;9.10;99.90
16643;DHT22;8435;52.184;5.406;2023-12-20T03:32:06;9.10;99.90
16643;DHT22;8435;52.184;5.406;2023-12-20T03:34:34;9.10;99.90
16643;DHT22;8435;52.184;5.406;2023-12-20T03:37:06;9.10;99.90
16643;DHT22;8435;52.184;5.406;2023-12-20T03:39:35;9.10;99.90
16643;DHT22;8435;52.184;5.406;2023-12-20T03:42:03;9.20;99.90
16643;DHT22;8435;52.184;5.406;2023-12-20T03:44:29;9.20;99.90
16643;DHT22;8435;52.184;5.406;2023-12-20T03:46:56;9.20;99.90
16643;DHT22;8435;52.184;5.406;2023-12-20T03:49:24;9.20;99.90
16643;DHT22;8435;52.184;5.406;2023-12-20T03:51:51;9.30;99.90
16643;DHT22;8435;52.184;5.406;2023-12-20T03:54:20;9.30;99.90
16643;DHT22;8435;52.184;5.406;2023-12-20T03:56:49;9.30;99.90
16643;DHT22;8435;52.184;5.406;2023-12-20T03:59:16;9.30;99.90
16643;DHT22;8435;52.184;5.406;2023-12-20T04:01:43;9.30;99.90
16643;DHT22;8435;52.184;5.406;2023-12-20T04:04:10;9.30;99.90
16643;DHT22;8435;52.184;5.406;2023-12-20T04:06:39;9.20;99.90
16643;DHT22;8435;52.184;5.406;2023-12-20T04:09:06;9.30;99.90
16643;DHT22;8435;52.184;5.406;2023-12-20T04:11:34;9.30;99.90
16643;DHT22;8435;52.184;5.406;2023-12-20T04:14:04;9.40;99.90
16643;DHT22;8435;52.184;5.406;2023-12-20T04:16:32;9.40;99.90
16643;DHT22;8435;52.184;5.406;2023-12-20T04:18:59;9.40;99.90
16643;DHT22;8435;52.184;5.406;2023-12-20T04:21:26;9.50;99.90
16643;DHT22;8435;52.184;5.406;2023-12-20T04:23:54;9.50;99.90
16643;DHT22;8435;52.184;5.406;2023-12-20T04:26:21;9.50;99.90
16643;DHT22;8435;52.184;5.406;2023-12-20T04:28:48;9.50;99.90
16643;DHT22;8435;52.184;5.406;2023-12-20T04:31:15;9.50;99.90
16643;DHT22;8435;52.184;5.406;2023-12-20T04:33:41;9.60;99.90
16643;DHT22;8435;52.184;5.406;2023-12-20T04:36:08;9.60;99.90
16643;DHT22;8435;52.184;5.406;2023-12-20T04:38:35;9.60;99.90
16643;DHT22;8435;52.184;5.406;2023-12-20T04:41:03;9.70;99.90
16643;DHT22;8435;52.184;5.406;2023-12-20T04:43:30;9.70;99.90
16643;DHT22;8435;52.184;5.406;2023-12-20T04:45:57;9.80;99.90
16643;DHT22;8435;52.184;5.406;2023-12-20T04:48:24;9.70;99.90
16643;DHT22;8435;52.184;5.406;2023-12-20T04:50:50;9.80;99.90
16643;DHT22;8435;52.184;5.406;2023-12-20T04:53:17;9.80;99.90
16643;DHT22;8435;52.184;5.406;2023-12-20T04:55:46;9.80;99.90
16643;DHT22;8435;52.184;5.406;2023-12-20T04:58:15;9.80;99.90
16643;DHT22;8435;52.184;5.406;2023-12-20T05:00:41;9.80;99.90
16643;DHT22;8435;52.184;5.406;2023-12-20T05:03:08;9.80;99.90
16643;DHT22;8435;52.184;5.406;2023-12-20T05:05:35;9.90;99.90
16643;DHT22;8435;52.184;5.406;2023-12-20T05:08:02;9.90;99.90
16643;DHT22;8435;52.184;5.406;2023-12-20T05:10:29;9.90;99.90
16643;DHT22;8435;52.184;5.406;2023-12-20T05:12:56;10.00;99.90
16643;DHT22;8435;52.184;5.406;2023-12-20T05:15:24;9.90;99.90
16643;DHT22;8435;52.184;5.406;2023-12-20T05:17:51;10.00;99.90
16643;DHT22;8435;52.184;5.406;2023-12-20T05:20:23;10.00;99.90
16643;DHT22;8435;52.184;5.406;2023-12-20T05:22:50;10.00;99.90
16643;DHT22;8435;52.184;5.406;2023-12-20T05:25:19;10.00;99.90
16643;DHT22;8435;52.184;5.406;2023-12-20T05:27:45;10.00;99.90
16643;DHT22;8435;52.184;5.406;2023-12-20T05:30:12;10.10;99.90
16643;DHT22;8435;52.184;5.406;2023-12-20T05:32:40;10.00;99.90
16643;DHT22;8435;52.184;5.406;2023-12-20T05:35:07;10.00;99.90
16643;DHT22;8435;52.184;5.406;2023-12-20T05:37:36;10.10;99.90
16643;DHT22;8435;52.184;5.406;2023-12-20T05:40:03;10.10;99.90
16643;DHT22;8435;52.184;5.406;2023-12-20T05:42:30;10.10;99.90
16643;DHT22;8435;52.184;5.406;2023-12-20T05:44:57;10.10;99.90
16643;DHT22;8435;52.184;5.406;2023-12-20T05:47:24;10.10;99.90
16643;DHT22;8435;52.184;5.406;2023-12-20T05:49:52;10.10;99.90
16643;DHT22;8435;52.184;5.406;2023-12-20T05:52:18;10.10;99.90
16643;DHT22;8435;52.184;5.406;2023-12-20T05:54:45;10.10;99.90
16643;DHT22;8435;52.184;5.406;2023-12-20T05:57:12;10.10;99.90
16643;DHT22;8435;52.184;5.406;2023-12-20T05:59:39;10.10;99.90
16643;DHT22;8435;52.184;5.406;2023-12-20T06:02:05;10.20;99.90
16643;DHT22;8435;52.184;5.406;2023-12-20T06:04:32;10.20;99.90
16643;DHT22;8435;52.184;5.406;2023-12-20T06:07:00;10.20;99.90
16643;DHT22;8435;52.184;5.406;2023-12-20T06:09:27;10.20;99.90
16643;DHT22;8435;52.184;5.406;2023-12-20T06:11:54;10.20;99.90
16643;DHT22;8435;52.184;5.406;2023-12-20T06:14:21;10.20;99.90
16643;DHT22;8435;52.184;5.406;2023-12-20T06:16:48;10.20;99.90
16643;DHT22;8435;52.184;5.406;2023-12-20T06:19:14;10.20;99.90
16643;DHT22;8435;52.184;5.406;2023-12-20T06:21:41;10.20;99.90
16643;DHT22;8435;52.184;5.406;2023-12-20T06:24:09;10.20;99.90
16643;DHT22;8435;52.184;5.406;2023-12-20T06:26:36;10.20;99.90
16643;DHT22;8435;52.184;5.406;2023-12-20T06:29:06;10.20;99.90
16643;DHT22;8435;52.184;5.406;2023-12-20T06:31:33;10.20;99.90
16643;DHT22;8435;52.184;5.406;2023-12-20T06:34:00;10.30;99.90
16643;DHT22;8435;52.184;5.406;2023-12-20T06:36:27;10.30;99.90
16643;DHT22;8435;52.184;5.406;2023-12-20T06:38:53;10.30;99.90
16643;DHT22;8435;52.184;5.406;2023-12-20T06:41:22;10.30;99.90
16643;DHT22;8435;52.184;5.406;2023-12-20T06:43:50;10.30;99.90
16643;DHT22;8435;52.184;5.406;2023-12-20T06:46:18;10.30;99.90
16643;DHT22;8435;52.184;5.406;2023-12-20T06:48:46;10.30;99.90
16643;DHT22;8435;52.184;5.406;2023-12-20T06:51:13;10.30;99.90
16643;DHT22;8435;52.184;5.406;2023-12-20T06:53:40;10.30;99.90
16643;DHT22;8435;52.184;5.406;2023-12-20T06:56:07;10.30;99.90
16643;DHT22;8435;52.184;5.406;2023-12-20T06:58:38;10.30;99.90
16643;DHT22;8435;52.184;5.406;2023-12-20T07:01:05;10.30;99.90
16643;DHT22;8435;52.184;5.406;2023-12-20T07:03:32;10.40;99.90
16643;DHT22;8435;52.184;5.406;2023-12-20T07:05:59;10.30;99.90
16643;DHT22;8435;52.184;5.406;2023-12-20T07:08:25;10.40;99.90
16643;DHT22;8435;52.184;5.406;2023-12-20T07:10:53;10.30;99.90
16643;DHT22;8435;52.184;5.406;2023-12-20T07:13:19;10.40;99.90
16643;DHT22;8435;52.184;5.406;2023-12-20T07:15:48;10.40;99.90
16643;DHT22;8435;52.184;5.406;2023-12-20T07:18:15;10.40;99.90
16643;DHT22;8435;52.184;5.406;2023-12-20T07:20:45;10.40;99.90
16643;DHT22;8435;52.184;5.406;2023-12-20T07:23:12;10.40;99.90
16643;DHT22;8435;52.184;5.406;2023-12-20T07:25:39;10.40;99.90
16643;DHT22;8435;52.184;5.406;2023-12-20T07:28:09;10.40;99.90
16643;DHT22;8435;52.184;5.406;2023-12-20T07:30:38;10.40;99.90
16643;DHT22;8435;52.184;5.406;2023-12-20T07:33:06;10.50;99.90
16643;DHT22;8435;52.184;5.406;2023-12-20T07:35:34;10.50;99.90
16643;DHT22;8435;52.184;5.406;2023-12-20T07:38:01;10.50;99.90
16643;DHT22;8435;52.184;5.406;2023-12-20T07:40:28;10.50;99.90
16643;DHT22;8435;52.184;5.406;2023-12-20T07:42:55;10.50;99.90
16643;DHT22;8435;52.184;5.406;2023-12-20T07:45:21;10.50;99.90
16643;DHT22;8435;52.184;5.406;2023-12-20T07:47:48;10.50;99.90
16643;DHT22;8435;52.184;5.406;2023-12-20T07:50:22;10.50;99.90
16643;DHT22;8435;52.184;5.406;2023-12-20T07:52:48;10.60;99.90
16643;DHT22;8435;52.184;5.406;2023-12-20T07:55:15;10.60;99.90
16643;DHT22;8435;52.184;5.406;2023-12-20T07:57:44;10.60;99.90
16643;DHT22;8435;52.184;5.406;2023-12-20T08:00:12;10.60;99.90
16643;DHT22;8435;52.184;5.406;2023-12-20T08:02:39;10.60;99.90
16643;DHT22;8435;52.184;5.406;2023-12-20T08:05:06;10.60;99.90
16643;DHT22;8435;52.184;5.406;2023-12-20T08:07:34;10.60;99.90
16643;DHT22;8435;52.184;5.406;2023-12-20T08:10:01;10.60;99.90
16643;DHT22;8435;52.184;5.406;2023-12-20T08:12:28;10.60;99.90
16643;DHT22;8435;52.184;5.406;2023-12-20T08:14:55;10.60;99.90
16643;DHT22;8435;52.184;5.406;2023-12-20T08:17:22;10.70;99.90
16643;DHT22;8435;52.184;5.406;2023-12-20T08:19:51;10.70;99.90
16643;DHT22;8435;52.184;5.406;2023-12-20T08:22:17;10.70;99.90
16643;DHT22;8435;52.184;5.406;2023-12-20T08:24:47;10.70;99.90
16643;DHT22;8435;52.184;5.406;2023-12-20T08:27:14;10.70;99.90
16643;DHT22;8435;52.184;5.406;2023-12-20T08:29:41;10.70;99.90
16643;DHT22;8435;52.184;5.406;2023-12-20T08:32:10;10.70;99.90
16643;DHT22;8435;52.184;5.406;2023-12-20T08:34:36;10.80;99.90
16643;DHT22;8435;52.184;5.406;2023-12-20T08:37:03;10.80;99.90
16643;DHT22;8435;52.184;5.406;2023-12-20T08:39:30;10.80;99.90
16643;DHT22;8435;52.184;5.406;2023-12-20T08:42:00;10.80;99.90
16643;DHT22;8435;52.184;5.406;2023-12-20T08:44:27;10.80;99.90
16643;DHT22;8435;52.184;5.406;2023-12-20T08:46:53;10.80;99.90
16643;DHT22;8435;52.184;5.406;2023-12-20T08:49:22;10.80;99.90
16643;DHT22;8435;52.184;5.406;2023-12-20T08:51:49;10.80;99.90
16643;DHT22;8435;52.184;5.406;2023-12-20T08:54:18;10.80;99.90
16643;DHT22;8435;52.184;5.406;2023-12-20T08:56:45;10.80;99.90
16643;DHT22;8435;52.184;5.406;2023-12-20T08:59:14;10.80;99.90
16643;DHT22;8435;52.184;5.406;2023-12-20T09:01:40;10.80;99.90
16643;DHT22;8435;52.184;5.406;2023-12-20T09:04:07;10.80;99.90
16643;DHT22;8435;52.184;5.406;2023-12-20T09:06:34;10.80;99.90
16643;DHT22;8435;52.184;5.406;2023-12-20T09:09:01;10.90;99.90
16643;DHT22;8435;52.184;5.406;2023-12-20T09:11:29;10.80;99.90
16643;DHT22;8435;52.184;5.406;2023-12-20T09:13:58;10.80;99.90
16643;DHT22;8435;52.184;5.406;2023-12-20T09:16:27;10.90;99.90
16643;DHT22;8435;52.184;5.406;2023-12-20T09:18:53;10.80;99.90
16643;DHT22;8435;52.184;5.406;2023-12-20T09:21:20;10.80;99.90
16643;DHT22;8435;52.184;5.406;2023-12-20T09:23:47;10.90;99.90
16643;DHT22;8435;52.184;5.406;2023-12-20T09:26:14;10.90;99.90
16643;DHT22;8435;52.184;5.406;2023-12-20T09:28:41;10.90;99.90
16643;DHT22;8435;52.184;5.406;2023-12-20T09:31:07;10.90;99.90
16643;DHT22;8435;52.184;5.406;2023-12-20T09:33:36;10.90;99.90
16643;DHT22;8435;52.184;5.406;2023-12-20T09:36:03;10.90;99.90
16643;DHT22;8435;52.184;5.406;2023-12-20T09:38:32;10.90;99.90
16643;DHT22;8435;52.184;5.406;2023-12-20T09:41:02;10.90;99.90
16643;DHT22;8435;52.184;5.406;2023-12-20T09:43:30;10.90;99.90
16643;DHT22;8435;52.184;5.406;2023-12-20T09:46:00;11.00;99.90
16643;DHT22;8435;52.184;5.406;2023-12-20T09:48:30;11.00;99.90
16643;DHT22;8435;52.184;5.406;2023-12-20T09:50:59;11.00;99.90
16643;DHT22;8435;52.184;5.406;2023-12-20T09:53:26;11.00;99.90
16643;DHT22;8435;52.184;5.406;2023-12-20T09:56:00;11.10;99.90
16643;DHT22;8435;52.184;5.406;2023-12-20T09:58:28;11.00;99.90
16643;DHT22;8435;52.184;5.406;2023-12-20T10:00:57;11.10;99.90
16643;DHT22;8435;52.184;5.406;2023-12-20T10:03:25;11.00;99.90
16643;DHT22;8435;52.184;5.406;2023-12-20T10:05:54;11.10;99.90
16643;DHT22;8435;52.184;5.406;2023-12-20T10:08:26;11.10;99.90
16643;DHT22;8435;52.184;5.406;2023-12-20T10:10:55;11.10;99.90
16643;DHT22;8435;52.184;5.406;2023-12-20T10:13:23;11.20;99.90
16643;DHT22;8435;52.184;5.406;2023-12-20T10:15:50;11.20;99.90
16643;DHT22;8435;52.184;5.406;2023-12-20T10:18:19;11.20;99.90
16643;DHT22;8435;52.184;5.406;2023-12-20T10:20:47;11.30;99.90
16643;DHT22;8435;52.184;5.406;2023-12-20T10:23:15;11.30;99.90
16643;DHT22;8435;52.184;5.406;2023-12-20T10:25:55;11.30;99.90
16643;DHT22;8435;52.184;5.406;2023-12-20T10:28:22;11.40;99.90
16643;DHT22;8435;52.184;5.406;2023-12-20T10:30:53;11.40;99.90
16643;DHT22;8435;52.184;5.406;2023-12-20T10:33:24;11.50;99.90
16643;DHT22;8435;52.184;5.406;2023-12-20T10:35:52;11.50;99.90
16643;DHT22;8435;52.184;5.406;2023-12-20T10:38:21;11.50;99.90
16643;DHT22;8435;52.184;5.406;2023-12-20T10:40:54;11.60;99.90
16643;DHT22;8435;52.184;5.406;2023-12-20T10:43:21;11.60;99.90
16643;DHT22;8435;52.184;5.406;2023-12-20T10:45:49;11.60;99.90
16643;DHT22;8435;52.184;5.406;2023-12-20T10:48:16;11.60;99.90
16643;DHT22;8435;52.184;5.406;2023-12-20T10:50:43;11.70;99.90
16643;DHT22;8435;52.184;5.406;2023-12-20T10:53:12;11.70;99.90
16643;DHT22;8435;52.184;5.406;2023-12-20T10:55:40;11.80;99.90
16643;DHT22;8435;52.184;5.406;2023-12-20T10:58:10;11.90;99.90
16643;DHT22;8435;52.184;5.406;2023-12-20T11:00:40;11.90;99.90
16643;DHT22;8435;52.184;5.406;2023-12-20T11:03:09;11.90;99.90
16643;DHT22;8435;52.184;5.406;2023-12-20T11:05:44;12.00;99.90
16643;DHT22;8435;52.184;5.406;2023-12-20T11:08:20;12.00;99.90
16643;DHT22;8435;52.184;5.406;2023-12-20T11:10:58;12.00;99.90
16643;DHT22;8435;52.184;5.406;2023-12-20T11:13:32;12.10;99.90
16643;DHT22;8435;52.184;5.406;2023-12-20T11:16:02;12.10;99.90
16643;DHT22;8435;52.184;5.406;2023-12-20T11:18:30;12.10;99.90
16643;DHT22;8435;52.184;5.406;2023-12-20T11:21:00;12.10;99.90
16643;DHT22;8435;52.184;5.406;2023-12-20T11:23:27;12.10;99.90
16643;DHT22;8435;52.184;5.406;2023-12-20T11:25:56;12.20;99.90
16643;DHT22;8435;52.184;5.406;2023-12-20T11:28:25;12.20;99.90
16643;DHT22;8435;52.184;5.406;2023-12-20T11:30:54;12.20;99.90
16643;DHT22;8435;52.184;5.406;2023-12-20T11:33:22;12.30;99.90
16643;DHT22;8435;52.184;5.406;2023-12-20T11:35:49;12.30;99.90
16643;DHT22;8435;52.184;5.406;2023-12-20T11:38:16;12.30;99.90
16643;DHT22;8435;52.184;5.406;2023-12-20T11:40:43;12.40;99.90
16643;DHT22;8435;52.184;5.406;2023-12-20T11:43:10;12.40;99.90
16643;DHT22;8435;52.184;5.406;2023-12-20T11:45:37;12.50;99.90
16643;DHT22;8435;52.184;5.406;2023-12-20T11:48:06;12.60;99.90
16643;DHT22;8435;52.184;5.406;2023-12-20T11:50:34;12.60;99.90
16643;DHT22;8435;52.184;5.406;2023-12-20T11:53:00;12.70;99.90
16643;DHT22;8435;52.184;5.406;2023-12-20T11:55:27;12.70;99.90
16643;DHT22;8435;52.184;5.406;2023-12-20T11:57:54;12.70;99.90
16643;DHT22;8435;52.184;5.406;2023-12-20T12:00:21;12.70;99.90
16643;DHT22;8435;52.184;5.406;2023-12-20T12:02:56;12.70;99.90
16643;DHT22;8435;52.184;5.406;2023-12-20T12:05:25;12.70;99.90
16643;DHT22;8435;52.184;5.406;2023-12-20T12:07:51;12.70;99.90
16643;DHT22;8435;52.184;5.406;2023-12-20T12:10:19;12.70;99.90
16643;DHT22;8435;52.184;5.406;2023-12-20T12:12:49;12.60;99.90
16643;DHT22;8435;52.184;5.406;2023-12-20T12:15:16;12.60;99.90
16643;DHT22;8435;52.184;5.406;2023-12-20T12:17:43;12.60;99.90
16643;DHT22;8435;52.184;5.406;2023-12-20T12:20:10;12.60;99.90
16643;DHT22;8435;52.184;5.406;2023-12-20T12:22:39;12.60;99.90
16643;DHT22;8435;52.184;5.406;2023-12-20T12:25:10;12.60;99.90
16643;DHT22;8435;52.184;5.406;2023-12-20T12:27:40;12.60;99.90
16643;DHT22;8435;52.184;5.406;2023-12-20T12:30:09;12.60;99.90
16643;DHT22;8435;52.184;5.406;2023-12-20T12:32:38;12.60;99.90
16643;DHT22;8435;52.184;5.406;2023-12-20T12:35:05;12.50;99.90
16643;DHT22;8435;52.184;5.406;2023-12-20T12:37:34;12.60;99.90
16643;DHT22;8435;52.184;5.406;2023-12-20T12:40:04;12.60;99.90
16643;DHT22;8435;52.184;5.406;2023-12-20T12:42:31;12.60;99.90
16643;DHT22;8435;52.184;5.406;2023-12-20T12:44:58;12.60;99.90
16643;DHT22;8435;52.184;5.406;2023-12-20T12:47:27;12.50;99.90
16643;DHT22;8435;52.184;5.406;2023-12-20T12:49:54;12.50;99.90
16643;DHT22;8435;52.184;5.406;2023-12-20T12:52:20;12.50;99.90
16643;DHT22;8435;52.184;5.406;2023-12-20T12:54:47;12.50;99.90
16643;DHT22;8435;52.184;5.406;2023-12-20T12:57:18;12.50;99.90
16643;DHT22;8435;52.184;5.406;2023-12-20T12:59:46;12.50;99.90
16643;DHT22;8435;52.184;5.406;2023-12-20T13:02:13;12.50;99.90
16643;DHT22;8435;52.184;5.406;2023-12-20T13:04:40;12.50;99.90
16643;DHT22;8435;52.184;5.406;2023-12-20T13:07:07;12.50;99.90
16643;DHT22;8435;52.184;5.406;2023-12-20T13:09:36;12.50;99.90
16643;DHT22;8435;52.184;5.406;2023-12-20T13:12:03;12.50;99.90
16643;DHT22;8435;52.184;5.406;2023-12-20T13:14:34;12.50;99.90
16643;DHT22;8435;52.184;5.406;2023-12-20T13:17:02;12.50;99.90
16643;DHT22;8435;52.184;5.406;2023-12-20T13:19:31;12.40;99.90
16643;DHT22;8435;52.184;5.406;2023-12-20T13:22:00;12.50;99.90
16643;DHT22;8435;52.184;5.406;2023-12-20T13:24:27;12.40;99.90
16643;DHT22;8435;52.184;5.406;2023-12-20T13:26:54;12.40;99.90
16643;DHT22;8435;52.184;5.406;2023-12-20T13:29:22;12.40;99.90
16643;DHT22;8435;52.184;5.406;2023-12-20T13:31:50;12.40;99.90
16643;DHT22;8435;52.184;5.406;2023-12-20T13:34:17;12.40;99.90
16643;DHT22;8435;52.184;5.406;2023-12-20T13:36:45;12.40;99.90
16643;DHT22;8435;52.184;5.406;2023-12-20T13:39:13;12.40;99.90
16643;DHT22;8435;52.184;5.406;2023-12-20T13:41:45;12.30;99.90
16643;DHT22;8435;52.184;5.406;2023-12-20T13:44:12;12.40;99.90
16643;DHT22;8435;52.184;5.406;2023-12-20T13:46:41;12.30;99.90
16643;DHT22;8435;52.184;5.406;2023-12-20T13:49:09;12.30;99.90
16643;DHT22;8435;52.184;5.406;2023-12-20T13:51:36;12.30;99.90
16643;DHT22;8435;52.184;5.406;2023-12-20T13:54:04;12.30;99.90
16643;DHT22;8435;52.184;5.406;2023-12-20T13:56:31;12.30;99.90
16643;DHT22;8435;52.184;5.406;2023-12-20T13:58:58;12.30;99.90
16643;DHT22;8435;52.184;5.406;2023-12-20T14:01:25;12.30;99.90
16643;DHT22;8435;52.184;5.406;2023-12-20T14:03:52;12.30;99.90
16643;DHT22;8435;52.184;5.406;2023-12-20T14:06:20;12.20;99.90
16643;DHT22;8435;52.184;5.406;2023-12-20T14:08:47;12.20;99.90
16643;DHT22;8435;52.184;5.406;2023-12-20T14:11:14;12.20;99.90
16643;DHT22;8435;52.184;5.406;2023-12-20T14:13:41;12.20;99.90
16643;DHT22;8435;52.184;5.406;2023-12-20T14:16:08;12.20;99.90
16643;DHT22;8435;52.184;5.406;2023-12-20T14:18:36;12.20;99.90
16643;DHT22;8435;52.184;5.406;2023-12-20T14:21:03;12.20;99.90
16643;DHT22;8435;52.184;5.406;2023-12-20T14:23:32;12.20;99.90
16643;DHT22;8435;52.184;5.406;2023-12-20T14:26:06;12.20;99.90
16643;DHT22;8435;52.184;5.406;2023-12-20T14:28:32;12.10;99.90
16643;DHT22;8435;52.184;5.406;2023-12-20T14:30:59;12.20;99.90
16643;DHT22;8435;52.184;5.406;2023-12-20T14:33:26;12.20;99.90
16643;DHT22;8435;52.184;5.406;2023-12-20T14:35:52;12.10;99.90
16643;DHT22;8435;52.184;5.406;2023-12-20T14:38:19;12.10;99.90
16643;DHT22;8435;52.184;5.406;2023-12-20T14:40:47;12.10;99.90
16643;DHT22;8435;52.184;5.406;2023-12-20T14:43:14;12.10;99.90
16643;DHT22;8435;52.184;5.406;2023-12-20T14:45:41;12.10;99.90
16643;DHT22;8435;52.184;5.406;2023-12-20T14:48:09;12.10;99.90
16643;DHT22;8435;52.184;5.406;2023-12-20T14:50:36;12.10;99.90
16643;DHT22;8435;52.184;5.406;2023-12-20T14:53:03;12.10;99.90
16643;DHT22;8435;52.184;5.406;2023-12-20T14:55:30;12.10;99.90
16643;DHT22;8435;52.184;5.406;2023-12-20T14:58:01;12.10;99.90
16643;DHT22;8435;52.184;5.406;2023-12-20T15:00:28;12.10;99.90
16643;DHT22;8435;52.184;5.406;2023-12-20T15:02:59;12.10;99.90
16643;DHT22;8435;52.184;5.406;2023-12-20T15:05:26;12.10;99.90
16643;DHT22;8435;52.184;5.406;2023-12-20T15:07:53;12.10;99.90
16643;DHT22;8435;52.184;5.406;2023-12-20T15:10:19;12.10;99.90
16643;DHT22;8435;52.184;5.406;2023-12-20T15:12:46;12.10;99.90
16643;DHT22;8435;52.184;5.406;2023-12-20T15:15:17;12.10;99.90
16643;DHT22;8435;52.184;5.406;2023-12-20T15:17:45;12.10;99.90
16643;DHT22;8435;52.184;5.406;2023-12-20T15:20:12;12.10;99.90
16643;DHT22;8435;52.184;5.406;2023-12-20T15:22:41;12.10;99.90
16643;DHT22;8435;52.184;5.406;2023-12-20T15:25:11;12.10;99.90
16643;DHT22;8435;52.184;5.406;2023-12-20T15:27:45;12.10;99.90
16643;DHT22;8435;52.184;5.406;2023-12-20T15:30:14;12.10;99.90
16643;DHT22;8435;52.184;5.406;2023-12-20T15:32:44;12.00;99.90
16643;DHT22;8435;52.184;5.406;2023-12-20T15:35:11;12.10;99.90
16643;DHT22;8435;52.184;5.406;2023-12-20T15:37:38;12.00;99.90
16643;DHT22;8435;52.184;5.406;2023-12-20T15:40:07;12.00;99.90
16643;DHT22;8435;52.184;5.406;2023-12-20T15:42:38;12.00;99.90
16643;DHT22;8435;52.184;5.406;2023-12-20T15:45:06;11.90;99.90
16643;DHT22;8435;52.184;5.406;2023-12-20T15:47:34;12.00;99.90
16643;DHT22;8435;52.184;5.406;2023-12-20T15:50:03;12.00;99.90
16643;DHT22;8435;52.184;5.406;2023-12-20T15:52:31;12.00;99.90
16643;DHT22;8435;52.184;5.406;2023-12-20T15:54:58;12.00;99.90